Time;durP1;ratioP1;P1;durP2;ratioP2;P2;SDS_P1;SDS_P2;PMS_P1;PMS_P2;Temp;Humidity;BMP_temperature;BMP_pressure;BME280_temperature;BME280_humidity;BME280_pressure;Samples;Min_cycle;Max_cycle;Signal;HPM_P1;HPM_P2
2024/02/15 00:00:48;;;;;;;10.38;6.28;;;;;;;;;;5026959;28;20021;-58
2024/02/15 00:03:13;;;;;;;14.02;6.75;;;;;;;;;;5032184;28;20103;-57
2024/02/15 00:05:38;;;;;;;12.00;6.10;;;;;;;;;;5024687;28;20156;-57
2024/02/15 00:08:04;;;;;;;11.80;6.03;;;;;;;;;;5028351;28;20673;-58
2024/02/15 00:10:29;;;;;;;10.52;5.97;;;;;;;;;;5030945;28;20108;-57
2024/02/15 00:12:54;;;;;;;12.13;5.97;;;;;;;;;;5031602;28;20148;-58
2024/02/15 00:15:20;;;;;;;12.55;7.00;;;;;;;;;;5032675;28;20033;-59
2024/02/15 00:17:46;;;;;;;12.63;7.10;;;;;;;;;;5032776;28;20095;-59
2024/02/15 00:20:12;;;;;;;15.00;6.88;;;;;;;;;;5031833;28;20505;-58
2024/02/15 00:22:38;;;;;;;16.05;7.95;;;;;;;;;;5035088;28;20022;-57
2024/02/15 00:25:04;;;;;;;13.73;8.10;;;;;;;;;;5035504;28;20029;-59
2024/02/15 00:27:29;;;;;;;15.32;8.10;;;;;;;;;;5032659;28;20021;-57
2024/02/15 00:29:55;;;;;;;14.15;7.93;;;;;;;;;;5035926;28;20022;-57
2024/02/15 00:32:20;;;;;;;13.77;7.75;;;;;;;;;;5036866;28;20021;-58
2024/02/15 00:34:46;;;;;;;12.32;7.63;;;;;;;;;;5033156;28;20025;-58
2024/02/15 00:37:12;;;;;;;14.52;8.30;;;;;;;;;;5032174;28;20026;-59
2024/02/15 00:39:37;;;;;;;13.73;7.80;;;;;;;;;;5032241;28;20018;-57
2024/02/15 00:42:03;;;;;;;13.90;8.18;;;;;;;;;;5032909;28;20611;-57
2024/02/15 00:44:28;;;;;;;12.35;7.45;;;;;;;;;;5030990;28;20034;-56
2024/02/15 00:46:53;;;;;;;13.65;8.30;;;;;;;;;;5032815;28;20045;-57
2024/02/15 00:49:22;;;;;;;13.50;6.85;;;;;;;;;;5032267;28;20421;-57
2024/02/15 00:51:47;;;;;;;13.15;7.78;;;;;;;;;;5031842;28;20020;-57
2024/02/15 00:54:12;;;;;;;12.32;7.20;;;;;;;;;;5032312;28;20026;-57
2024/02/15 00:56:37;;;;;;;13.30;6.90;;;;;;;;;;5032533;28;20152;-56
2024/02/15 00:59:03;;;;;;;11.50;7.03;;;;;;;;;;5032289;28;20112;-58
2024/02/15 01:01:28;;;;;;;15.45;7.90;;;;;;;;;;5027857;28;20030;-58
2024/02/15 01:03:54;;;;;;;15.13;8.63;;;;;;;;;;5031723;28;20480;-58
2024/02/15 01:06:19;;;;;;;14.07;8.88;;;;;;;;;;5031318;28;20469;-57
2024/02/15 01:08:44;;;;;;;14.10;8.32;;;;;;;;;;5020824;28;20064;-58
2024/02/15 01:11:09;;;;;;;15.37;8.90;;;;;;;;;;5029245;28;20033;-57
2024/02/15 01:13:34;;;;;;;18.27;8.73;;;;;;;;;;5031153;28;20127;-58
2024/02/15 01:16:03;;;;;;;16.57;8.80;;;;;;;;;;5026689;28;20026;-58
2024/02/15 01:18:29;;;;;;;17.33;8.68;;;;;;;;;;5022416;28;20025;-57
2024/02/15 01:20:54;;;;;;;15.85;9.13;;;;;;;;;;5031101;28;20029;-58
2024/02/15 01:23:19;;;;;;;13.87;7.93;;;;;;;;;;5031328;28;20099;-58
2024/02/15 01:25:45;;;;;;;13.53;7.90;;;;;;;;;;5030671;28;20036;-57
2024/02/15 01:28:11;;;;;;;14.98;7.93;;;;;;;;;;5029671;28;20073;-57
2024/02/15 01:30:36;;;;;;;15.27;8.17;;;;;;;;;;5019378;28;20034;-58
2024/02/15 01:33:02;;;;;;;16.25;9.00;;;;;;;;;;5032574;28;20460;-57
2024/02/15 01:35:27;;;;;;;15.37;8.93;;;;;;;;;;5014794;28;20029;-58
2024/02/15 01:37:52;;;;;;;17.55;8.57;;;;;;;;;;5031366;28;20482;-57
2024/02/15 01:40:18;;;;;;;17.33;8.85;;;;;;;;;;5019281;28;20033;-58
2024/02/15 01:42:44;;;;;;;15.13;9.00;;;;;;;;;;5011547;28;20045;-57
2024/02/15 01:45:11;;;;;;;17.63;9.27;;;;;;;;;;5015961;28;20474;-58
2024/02/15 01:47:36;;;;;;;16.63;8.68;;;;;;;;;;5019937;28;20104;-57
2024/02/15 01:50:02;;;;;;;18.77;10.45;;;;;;;;;;5026648;28;20104;-57
2024/02/15 01:52:28;;;;;;;19.38;8.85;;;;;;;;;;5030694;28;20033;-58
2024/02/15 01:54:53;;;;;;;18.42;8.68;;;;;;;;;;5018077;28;20425;-57
2024/02/15 01:57:21;;;;;;;16.50;8.75;;;;;;;;;;5011504;28;20494;-57
2024/02/15 01:59:46;;;;;;;15.90;8.70;;;;;;;;;;5024406;28;20446;-57
2024/02/15 02:02:12;;;;;;;17.67;9.10;;;;;;;;;;5020905;28;20033;-56
2024/02/15 02:04:38;;;;;;;16.17;9.07;;;;;;;;;;5020419;28;20107;-57
2024/02/15 02:07:03;;;;;;;16.55;8.88;;;;;;;;;;5028132;28;20485;-59
2024/02/15 02:09:28;;;;;;;15.07;8.50;;;;;;;;;;5030101;28;20033;-58
2024/02/15 02:11:54;;;;;;;16.87;9.03;;;;;;;;;;5031100;28;20103;-57
2024/02/15 02:14:20;;;;;;;14.13;8.35;;;;;;;;;;5031070;28;20108;-57
2024/02/15 02:16:46;;;;;;;14.30;8.10;;;;;;;;;;5030078;28;20013;-57
2024/02/15 02:19:11;;;;;;;14.30;8.40;;;;;;;;;;5025981;28;20030;-58
2024/02/15 02:21:39;;;;;;;16.23;8.67;;;;;;;;;;5031110;28;20045;-56
2024/02/15 02:24:08;;;;;;;15.20;8.38;;;;;;;;;;5017320;28;20031;-57
2024/02/15 02:26:34;;;;;;;11.73;7.28;;;;;;;;;;5024878;28;20021;-60
2024/02/15 02:28:59;;;;;;;14.10;7.88;;;;;;;;;;5026178;28;20077;-57
2024/02/15 02:31:24;;;;;;;11.63;7.23;;;;;;;;;;5032311;28;20033;-56
2024/02/15 02:33:54;;;;;;;14.13;7.53;;;;;;;;;;5030489;28;20074;-58
2024/02/15 02:36:19;;;;;;;15.18;8.32;;;;;;;;;;5029235;28;20561;-57
2024/02/15 02:38:50;;;;;;;13.00;7.15;;;;;;;;;;5034839;28;20041;-57
2024/02/15 02:41:16;;;;;;;14.00;7.55;;;;;;;;;;5019721;28;20021;-57
2024/02/15 02:43:41;;;;;;;11.90;6.82;;;;;;;;;;5017966;28;20026;-58
2024/02/15 02:46:06;;;;;;;13.10;7.50;;;;;;;;;;5020197;28;20418;-57
2024/02/15 02:48:32;;;;;;;16.30;7.88;;;;;;;;;;5033567;28;20645;-56
2024/02/15 02:50:57;;;;;;;13.03;7.60;;;;;;;;;;5021076;28;20033;-57
2024/02/15 02:53:22;;;;;;;13.73;6.90;;;;;;;;;;5025168;28;20449;-57
2024/02/15 02:55:47;;;;;;;15.73;7.63;;;;;;;;;;5030775;28;20033;-57
2024/02/15 02:58:13;;;;;;;15.20;7.25;;;;;;;;;;5026268;28;20112;-57
2024/02/15 03:00:39;;;;;;;11.15;6.93;;;;;;;;;;5032994;28;20025;-58
2024/02/15 03:03:05;;;;;;;12.23;7.10;;;;;;;;;;5025699;28;20025;-58
2024/02/15 03:05:30;;;;;;;13.32;6.97;;;;;;;;;;5033459;28;20040;-59
2024/02/15 03:07:55;;;;;;;15.60;7.67;;;;;;;;;;5033844;28;20440;-58
2024/02/15 03:10:20;;;;;;;13.82;7.65;;;;;;;;;;5034425;28;20625;-57
2024/02/15 03:12:46;;;;;;;13.83;7.33;;;;;;;;;;5026978;28;20052;-58
2024/02/15 03:15:12;;;;;;;14.05;8.40;;;;;;;;;;5032629;28;20025;-58
2024/02/15 03:17:41;;;;;;;14.70;7.63;;;;;;;;;;5033000;28;20426;-58
2024/02/15 03:20:20;;;;;;;14.20;7.40;;;;;;;;;;5030306;28;20029;-57
2024/02/15 03:22:50;;;;;;;12.88;6.97;;;;;;;;;;5033854;28;20148;-57
2024/02/15 03:25:15;;;;;;;14.35;7.10;;;;;;;;;;5021034;28;20021;-56
2024/02/15 03:27:40;;;;;;;16.60;8.47;;;;;;;;;;5033010;28;20504;-57
2024/02/15 03:30:06;;;;;;;12.02;7.20;;;;;;;;;;5033543;28;20485;-57
2024/02/15 03:32:31;;;;;;;14.02;8.00;;;;;;;;;;5021233;28;20033;-60
2024/02/15 03:34:56;;;;;;;12.50;7.30;;;;;;;;;;5033932;28;20509;-58
2024/02/15 03:37:21;;;;;;;13.20;7.35;;;;;;;;;;5031680;28;20057;-58
2024/02/15 03:39:46;;;;;;;11.48;6.85;;;;;;;;;;5032660;28;20037;-58
2024/02/15 03:42:12;;;;;;;13.37;7.63;;;;;;;;;;5032729;28;20482;-58
2024/02/15 03:44:38;;;;;;;11.98;7.43;;;;;;;;;;5030976;28;20014;-58
2024/02/15 03:47:05;;;;;;;15.00;8.05;;;;;;;;;;5025943;28;20014;-57
2024/02/15 03:49:31;;;;;;;;;;;;;;;;;;5030856;28;20398;-58
2024/02/15 03:51:58;;;;;;;14.57;7.57;;;;;;;;;;5033412;28;19973;-58
2024/02/15 03:54:23;;;;;;;15.23;8.82;;;;;;;;;;5032014;28;20017;-62
2024/02/15 03:56:51;;;;;;;14.90;8.18;;;;;;;;;;5023608;28;20521;-57
2024/02/15 03:59:16;;;;;;;13.98;8.15;;;;;;;;;;5027465;28;20038;-58
2024/02/15 04:01:41;;;;;;;13.47;7.67;;;;;;;;;;5027058;28;20056;-57
2024/02/15 04:04:07;;;;;;;13.57;7.13;;;;;;;;;;5018946;28;20537;-57
2024/02/15 04:06:33;;;;;;;11.98;7.40;;;;;;;;;;5013628;28;20164;-58
2024/02/15 04:08:59;;;;;;;14.95;8.20;;;;;;;;;;5013680;28;20010;-57
2024/02/15 04:11:24;;;;;;;14.05;7.32;;;;;;;;;;5017276;28;20072;-57
2024/02/15 04:13:49;;;;;;;13.10;7.28;;;;;;;;;;5032196;28;20014;-57
2024/02/15 04:16:16;;;;;;;13.35;7.30;;;;;;;;;;5018789;28;20106;-59
2024/02/15 04:18:41;;;;;;;13.13;6.95;;;;;;;;;;5018260;28;20029;-57
2024/02/15 04:21:07;;;;;;;12.65;7.00;;;;;;;;;;5033176;28;20395;-59
2024/02/15 04:23:32;;;;;;;11.80;6.18;;;;;;;;;;5033318;28;20414;-58
2024/02/15 04:25:59;;;;;;;11.27;6.78;;;;;;;;;;5031689;28;20032;-58
2024/02/15 04:28:25;;;;;;;12.35;7.07;;;;;;;;;;5030983;28;20044;-59
2024/02/15 04:30:50;;;;;;;14.30;7.40;;;;;;;;;;5031686;28;20029;-58
2024/02/15 04:33:16;;;;;;;13.63;7.50;;;;;;;;;;5031728;28;20108;-58
2024/02/15 04:35:42;;;;;;;11.70;7.13;;;;;;;;;;5031299;28;20429;-58
2024/02/15 04:38:08;;;;;;;11.52;6.28;;;;;;;;;;5029275;28;20029;-58
2024/02/15 04:40:33;;;;;;;17.52;7.60;;;;;;;;;;5026910;28;20144;-58
2024/02/15 04:42:58;;;;;;;12.75;7.03;;;;;;;;;;5018689;28;20060;-59
2024/02/15 04:45:24;;;;;;;13.32;7.30;;;;;;;;;;5018340;28;20037;-58
2024/02/15 04:47:52;;;;;;;12.00;7.57;;;;;;;;;;5024502;28;20017;-58
2024/02/15 04:50:18;;;;;;;15.20;7.15;;;;;;;;;;5024272;28;20414;-58
2024/02/15 04:52:45;;;;;;;12.10;6.50;;;;;;;;;;5018267;28;20014;-58
2024/02/15 04:55:10;;;;;;;12.80;7.07;;;;;;;;;;5030503;28;20093;-59
2024/02/15 04:57:36;;;;;;;13.80;7.50;;;;;;;;;;5026856;28;20023;-57
2024/02/15 05:00:06;;;;;;;12.00;7.32;;;;;;;;;;5021487;28;20517;-59
2024/02/15 05:02:31;;;;;;;13.50;7.13;;;;;;;;;;5028584;28;20041;-58
2024/02/15 05:04:56;;;;;;;13.82;7.43;;;;;;;;;;5034829;28;20090;-56
2024/02/15 05:07:22;;;;;;;14.68;7.47;;;;;;;;;;5031891;28;20030;-57
2024/02/15 05:09:47;;;;;;;12.45;7.00;;;;;;;;;;5029591;28;20512;-57
2024/02/15 05:12:21;;;;;;;14.45;7.65;;;;;;;;;;5031678;28;20067;-57
2024/02/15 05:14:46;;;;;;;13.20;7.80;;;;;;;;;;5032811;28;20047;-58
2024/02/15 05:17:12;;;;;;;15.30;7.85;;;;;;;;;;5032362;28;20050;-57
2024/02/15 05:19:37;;;;;;;13.25;7.85;;;;;;;;;;5032263;28;20053;-57
2024/02/15 05:22:05;;;;;;;15.93;8.43;;;;;;;;;;5029727;28;20045;-57
2024/02/15 05:24:30;;;;;;;14.48;8.50;;;;;;;;;;5023454;28;20049;-57
2024/02/15 05:26:55;;;;;;;14.20;8.75;;;;;;;;;;5025969;28;20482;-58
2024/02/15 05:29:23;;;;;;;16.90;9.90;;;;;;;;;;5032215;28;20033;-58
2024/02/15 05:31:50;;;;;;;16.63;9.70;;;;;;;;;;5016038;28;20021;-58
2024/02/15 05:34:15;;;;;;;15.57;9.65;;;;;;;;;;5030620;28;20067;-58
2024/02/15 05:36:40;;;;;;;15.57;9.18;;;;;;;;;;5037668;28;20293;-57
2024/02/15 05:39:05;;;;;;;15.87;8.73;;;;;;;;;;5033036;28;20025;-58
2024/02/15 05:41:34;;;;;;;14.87;8.77;;;;;;;;;;5034940;28;20022;-58
2024/02/15 05:43:59;;;;;;;16.75;8.38;;;;;;;;;;5026506;28;20117;-58
2024/02/15 05:46:24;;;;;;;15.80;8.30;;;;;;;;;;5027292;28;20159;-58
2024/02/15 05:48:51;;;;;;;14.17;7.10;;;;;;;;;;5027703;28;20098;-58
2024/02/15 05:51:16;;;;;;;12.80;7.28;;;;;;;;;;5026853;28;20014;-57
2024/02/15 05:53:43;;;;;;;13.03;7.73;;;;;;;;;;5035639;28;20036;-57
2024/02/15 05:56:12;;;;;;;14.70;8.00;;;;;;;;;;5024593;28;20045;-57
2024/02/15 05:58:37;;;;;;;17.25;8.88;;;;;;;;;;5030332;28;20092;-58
2024/02/15 06:01:05;;;;;;;14.10;8.17;;;;;;;;;;5029922;28;20076;-57
2024/02/15 06:03:32;;;;;;;14.07;8.00;;;;;;;;;;5028849;28;20083;-58
2024/02/15 06:05:58;;;;;;;14.23;8.60;;;;;;;;;;5037775;28;20025;-59
2024/02/15 06:08:26;;;;;;;16.55;8.80;;;;;;;;;;5030753;28;20018;-58
2024/02/15 06:10:52;;;;;;;15.48;8.45;;;;;;;;;;5021622;28;20037;-56
2024/02/15 06:13:17;;;;;;;16.73;8.85;;;;;;;;;;5022770;28;20044;-59
2024/02/15 06:15:42;;;;;;;14.70;7.77;;;;;;;;;;5024759;28;20154;-58
2024/02/15 06:18:10;;;;;;;15.00;8.52;;;;;;;;;;5027221;28;20036;-57
2024/02/15 06:20:35;;;;;;;14.70;8.18;;;;;;;;;;5023869;28;20100;-58
2024/02/15 06:23:03;;;;;;;13.40;8.33;;;;;;;;;;5032729;28;20112;-58
2024/02/15 06:25:28;;;;;;;15.98;8.88;;;;;;;;;;5014189;28;20108;-58
2024/02/15 06:27:59;;;;;;;14.63;8.73;;;;;;;;;;5028979;28;20113;-58
2024/02/15 06:41:19;;;;;;;21.15;10.60;;;;;;;;;;5020579;28;20037;-58
2024/02/15 06:43:45;;;;;;;20.15;10.55;;;;;;;;;;5020985;28;20029;-60
2024/02/15 06:46:12;;;;;;;20.77;11.20;;;;;;;;;;5019135;28;20453;-57
2024/02/15 06:48:37;;;;;;;17.75;9.55;;;;;;;;;;5020595;28;20017;-58
2024/02/15 06:51:03;;;;;;;19.42;9.70;;;;;;;;;;5024155;28;20441;-57
2024/02/15 06:53:30;;;;;;;23.42;10.82;;;;;;;;;;5025924;28;20048;-58
2024/02/15 06:55:55;;;;;;;19.23;10.48;;;;;;;;;;5017774;28;20038;-57
2024/02/15 06:58:20;;;;;;;17.93;10.43;;;;;;;;;;5023235;28;20018;-58
2024/02/15 07:00:45;;;;;;;25.80;11.82;;;;;;;;;;5019731;28;21025;-59
2024/02/15 07:03:10;;;;;;;20.48;10.75;;;;;;;;;;5025726;28;20623;-56
2024/02/15 07:05:37;;;;;;;22.90;10.67;;;;;;;;;;5012344;28;20061;-57
2024/02/15 07:08:05;;;;;;;16.70;9.80;;;;;;;;;;5018768;28;20114;-57
2024/02/15 07:10:30;;;;;;;18.90;10.40;;;;;;;;;;5033536;28;20029;-58
2024/02/15 07:12:56;;;;;;;16.20;9.13;;;;;;;;;;5023986;28;20044;-57
2024/02/15 07:15:22;;;;;;;19.55;11.00;;;;;;;;;;5019059;28;20032;-58
2024/02/15 07:17:48;;;;;;;19.83;11.80;;;;;;;;;;5048905;28;20508;-59
2024/02/15 07:20:17;;;;;;;22.52;11.95;;;;;;;;;;5036883;28;20030;-58
2024/02/15 07:22:42;;;;;;;23.05;11.55;;;;;;;;;;5022608;28;20030;-57
2024/02/15 07:25:07;;;;;;;18.05;9.88;;;;;;;;;;5026883;28;20118;-57
2024/02/15 07:27:34;;;;;;;18.35;10.02;;;;;;;;;;5042103;28;20404;-57
2024/02/15 07:30:00;;;;;;;18.42;9.45;;;;;;;;;;5026977;28;20443;-57
2024/02/15 07:32:26;;;;;;;20.00;11.37;;;;;;;;;;5032791;28;20032;-57
2024/02/15 07:34:51;;;;;;;;;;;;;;;;;;5043692;28;20040;-58
2024/02/15 07:37:17;;;;;;;19.07;10.27;;;;;;;;;;5030474;28;20368;-58
2024/02/15 07:39:42;;;;;;;20.40;10.20;;;;;;;;;;5027597;28;20030;-57
2024/02/15 07:42:08;;;;;;;24.17;11.40;;;;;;;;;;5020617;28;20041;-57
2024/02/15 07:44:36;;;;;;;20.02;10.73;;;;;;;;;;5031520;28;20025;-58
2024/02/15 07:47:01;;;;;;;18.35;9.80;;;;;;;;;;5029623;28;20009;-57
2024/02/15 07:49:26;;;;;;;17.60;10.60;;;;;;;;;;5021561;28;20109;-58
2024/02/15 07:51:52;;;;;;;23.02;12.65;;;;;;;;;;5044428;28;20029;-56
2024/02/15 07:54:20;;;;;;;25.90;13.70;;;;;;;;;;5028448;28;20029;-57
2024/02/15 07:56:46;;;;;;;24.55;11.93;;;;;;;;;;5020295;28;20501;-59
2024/02/15 07:59:11;;;;;;;20.67;10.95;;;;;;;;;;5034640;28;20018;-58
2024/02/15 08:01:36;;;;;;;21.67;10.80;;;;;;;;;;5032439;28;20025;-57
2024/02/15 08:04:01;;;;;;;19.65;11.05;;;;;;;;;;5031483;28;20033;-58
2024/02/15 08:06:28;;;;;;;17.27;10.32;;;;;;;;;;5033920;28;20436;-58
2024/02/15 08:08:53;;;;;;;19.88;10.73;;;;;;;;;;5034338;28;20041;-58
2024/02/15 08:11:18;;;;;;;20.53;11.33;;;;;;;;;;5032257;28;20081;-58
2024/02/15 08:13:45;;;;;;;20.73;11.93;;;;;;;;;;5033678;28;20025;-58
2024/02/15 08:16:12;;;;;;;;;;;;;;;;;;5037838;28;20431;-58
2024/02/15 08:18:38;;;;;;;20.85;10.95;;;;;;;;;;5043279;28;19905;-57
2024/02/15 08:21:04;;;;;;;20.27;10.85;;;;;;;;;;5049473;28;20025;-57
2024/02/15 08:23:29;;;;;;;23.15;12.20;;;;;;;;;;5041689;28;20021;-57
2024/02/15 08:25:54;;;;;;;21.87;11.33;;;;;;;;;;5038989;28;20037;-57
2024/02/15 08:28:20;;;;;;;23.65;12.10;;;;;;;;;;5041451;28;20058;-57
2024/02/15 08:30:46;;;;;;;18.63;11.13;;;;;;;;;;5033268;28;20053;-57
2024/02/15 08:33:12;;;;;;;17.40;10.00;;;;;;;;;;5032673;28;20482;-57
2024/02/15 08:35:37;;;;;;;17.13;9.97;;;;;;;;;;5032620;28;20033;-57
2024/02/15 08:38:05;;;;;;;17.67;9.23;;;;;;;;;;5031654;28;21302;-57
2024/02/15 08:40:30;;;;;;;19.95;9.38;;;;;;;;;;5032413;28;20067;-58
2024/02/15 08:42:55;;;;;;;18.50;9.48;;;;;;;;;;5031931;28;20112;-58
2024/02/15 08:45:20;;;;;;;18.35;10.00;;;;;;;;;;5031051;28;20028;-58
2024/02/15 08:47:46;;;;;;;16.77;9.23;;;;;;;;;;5030892;28;20029;-58
2024/02/15 08:50:11;;;;;;;16.90;9.27;;;;;;;;;;5031819;28;20021;-56
2024/02/15 08:52:40;;;;;;;15.40;9.52;;;;;;;;;;5033281;28;20028;-57
2024/02/15 08:55:06;;;;;;;16.63;8.90;;;;;;;;;;5032930;28;20025;-56
2024/02/15 08:57:31;;;;;;;13.73;7.80;;;;;;;;;;5030815;28;20180;-57
2024/02/15 08:59:57;;;;;;;14.83;7.43;;;;;;;;;;5032414;28;20104;-58
2024/02/15 09:02:22;;;;;;;14.52;7.82;;;;;;;;;;5030180;28;20053;-58
2024/02/15 09:04:47;;;;;;;15.68;9.32;;;;;;;;;;5029177;28;20124;-57
2024/02/15 09:07:12;;;;;;;14.85;7.45;;;;;;;;;;5031662;28;20013;-57
2024/02/15 09:09:38;;;;;;;15.45;8.90;;;;;;;;;;5026527;28;20041;-57
2024/02/15 09:12:06;;;;;;;17.27;8.98;;;;;;;;;;5028612;28;20057;-57
2024/02/15 09:14:34;;;;;;;15.02;8.63;;;;;;;;;;5031474;28;20493;-57
2024/02/15 09:17:07;;;;;;;14.32;8.32;;;;;;;;;;5031994;28;20014;-57
2024/02/15 09:19:33;;;;;;;15.75;8.75;;;;;;;;;;5031477;28;20025;-57
2024/02/15 09:21:58;;;;;;;14.35;8.13;;;;;;;;;;5031375;28;20027;-57
2024/02/15 09:24:25;;;;;;;15.63;7.50;;;;;;;;;;5032230;28;20026;-57
2024/02/15 09:26:50;;;;;;;15.15;7.82;;;;;;;;;;5029286;28;20036;-57
2024/02/15 09:29:15;;;;;;;16.20;8.20;;;;;;;;;;5031419;28;20025;-57
2024/02/15 09:31:40;;;;;;;16.10;8.45;;;;;;;;;;5026818;28;20087;-57
2024/02/15 09:34:06;;;;;;;14.88;7.80;;;;;;;;;;5028268;28;20410;-56
2024/02/15 09:36:37;;;;;;;15.93;8.23;;;;;;;;;;5032442;28;20029;-58
2024/02/15 09:39:02;;;;;;;14.30;8.60;;;;;;;;;;5030101;28;20049;-58
2024/02/15 09:41:28;;;;;;;17.05;8.13;;;;;;;;;;5030822;28;20056;-57
2024/02/15 09:43:53;;;;;;;15.57;8.13;;;;;;;;;;5030842;28;20041;-58
2024/02/15 09:46:18;;;;;;;14.40;7.55;;;;;;;;;;5031363;28;20022;-58
2024/02/15 09:48:47;;;;;;;15.77;8.13;;;;;;;;;;5029737;28;20025;-57
2024/02/15 09:51:12;;;;;;;15.30;8.52;;;;;;;;;;5031039;28;20041;-58
2024/02/15 09:53:37;;;;;;;15.55;8.13;;;;;;;;;;5030439;28;20700;-58
2024/02/15 09:56:04;;;;;;;13.02;7.00;;;;;;;;;;5030858;28;20029;-58
2024/02/15 09:58:33;;;;;;;14.57;7.68;;;;;;;;;;5031149;28;20017;-57
2024/02/15 10:00:58;;;;;;;13.90;8.40;;;;;;;;;;5030668;28;20029;-57
2024/02/15 10:03:24;;;;;;;14.98;7.60;;;;;;;;;;5026925;28;20033;-57
2024/02/15 10:05:50;;;;;;;13.63;7.47;;;;;;;;;;5028925;28;20067;-57
2024/02/15 10:08:15;;;;;;;13.80;8.17;;;;;;;;;;5031208;28;20029;-57
2024/02/15 10:10:41;;;;;;;15.13;8.33;;;;;;;;;;5030933;28;20078;-58
2024/02/15 10:13:12;;;;;;;14.23;7.90;;;;;;;;;;5029424;28;20018;-58
2024/02/15 10:15:38;;;;;;;12.50;7.30;;;;;;;;;;5030622;28;20021;-59
2024/02/15 10:18:05;;;;;;;14.43;7.70;;;;;;;;;;5030968;28;20032;-59
2024/02/15 10:20:31;;;;;;;12.93;7.20;;;;;;;;;;5029709;28;20036;-58
2024/02/15 10:22:59;;;;;;;14.82;8.23;;;;;;;;;;5030170;28;20570;-57
2024/02/15 10:25:26;;;;;;;14.80;8.55;;;;;;;;;;5027447;28;20116;-57
2024/02/15 10:27:53;;;;;;;16.73;8.48;;;;;;;;;;5031170;28;20482;-57
2024/02/15 10:30:21;;;;;;;12.82;6.90;;;;;;;;;;5031251;28;20037;-57
2024/02/15 10:32:48;;;;;;;13.13;7.53;;;;;;;;;;5031385;28;20017;-57
2024/02/15 10:35:15;;;;;;;;;;;;;;;;;;5037686;28;20065;-56
2024/02/15 10:37:40;;;;;;;15.52;7.40;;;;;;;;;;5031979;28;20288;-58
2024/02/15 10:40:07;;;;;;;16.00;8.20;;;;;;;;;;5031699;28;20013;-57
2024/02/15 10:42:34;;;;;;;15.85;7.80;;;;;;;;;;5031811;28;20466;-58
2024/02/15 10:45:01;;;;;;;14.50;8.40;;;;;;;;;;5025524;28;20067;-57
2024/02/15 10:47:27;;;;;;;13.85;7.38;;;;;;;;;;5029195;28;20014;-58
2024/02/15 10:49:52;;;;;;;12.18;7.53;;;;;;;;;;5029865;28;20524;-58
2024/02/15 10:52:19;;;;;;;13.57;7.35;;;;;;;;;;5030346;28;20101;-58
2024/02/15 10:54:52;;;;;;;13.20;7.18;;;;;;;;;;5030160;28;20025;-58
2024/02/15 10:57:22;;;;;;;14.60;7.07;;;;;;;;;;5030688;28;20431;-57
2024/02/15 11:00:10;;;;;;;16.23;7.13;;;;;;;;;;5029740;28;20081;-58
2024/02/15 11:02:42;;;;;;;15.10;7.53;;;;;;;;;;5030301;28;20032;-57
2024/02/15 11:05:12;;;;;;;14.05;7.85;;;;;;;;;;5033212;28;20029;-57
2024/02/15 11:07:38;;;;;;;14.07;7.88;;;;;;;;;;5016359;28;20037;-58
2024/02/15 11:10:07;;;;;;;13.88;7.32;;;;;;;;;;5016791;28;20026;-57
2024/02/15 11:12:33;;;;;;;15.15;7.72;;;;;;;;;;5020092;28;20030;-59
2024/02/15 11:14:58;;;;;;;14.07;7.60;;;;;;;;;;5021413;28;20025;-57
2024/02/15 11:17:44;;;;;;;13.60;7.28;;;;;;;;;;5037903;28;20404;-59
2024/02/15 11:20:14;;;;;;;14.40;7.32;;;;;;;;;;5015631;28;20109;-57
2024/02/15 11:22:39;;;;;;;15.05;7.55;;;;;;;;;;5013738;28;20010;-58
2024/02/15 11:25:15;;;;;;;13.80;7.30;;;;;;;;;;5030239;28;20018;-58
2024/02/15 11:27:41;;;;;;;15.32;7.50;;;;;;;;;;5032227;28;20107;-57
2024/02/15 11:30:09;;;;;;;13.82;8.25;;;;;;;;;;5033368;28;20021;-57
2024/02/15 11:32:48;;;;;;;12.85;7.70;;;;;;;;;;5033547;28;20044;-57
2024/02/15 11:35:22;;;;;;;13.15;7.57;;;;;;;;;;5031546;28;20025;-57
2024/02/15 11:37:47;;;;;;;11.68;6.45;;;;;;;;;;5029501;28;20021;-57
2024/02/15 11:40:13;;;;;;;13.50;7.20;;;;;;;;;;5028640;28;20031;-59
2024/02/15 11:42:39;;;;;;;15.27;6.57;;;;;;;;;;5034218;28;20025;-57
2024/02/15 11:45:04;;;;;;;;;;;;;;;;;;5033149;28;20463;-59
2024/02/15 11:47:32;;;;;;;12.53;5.97;;;;;;;;;;5033699;28;19913;-57
2024/02/15 11:49:59;;;;;;;10.57;5.75;;;;;;;;;;5032141;28;20526;-57
2024/02/15 11:52:24;;;;;;;10.90;5.32;;;;;;;;;;5034015;28;20017;-57
2024/02/15 11:54:49;;;;;;;7.85;3.20;;;;;;;;;;5027852;28;20071;-58
2024/02/15 11:57:22;;;;;;;4.97;1.60;;;;;;;;;;5033339;28;20033;-57
2024/02/15 11:59:53;;;;;;;6.38;1.88;;;;;;;;;;5029771;28;20022;-57
2024/02/15 12:18:52;;;;;;;2.70;1.00;;;;;;;;;;5033859;28;20148;-57
2024/02/15 12:21:19;;;;;;;2.42;0.90;;;;;;;;;;5029058;28;20029;-57
2024/02/15 12:23:45;;;;;;;3.67;1.20;;;;;;;;;;5030482;28;20485;-58
2024/02/15 12:26:10;;;;;;;3.40;0.93;;;;;;;;;;5032254;28;20039;-56
2024/02/15 12:28:35;;;;;;;4.33;1.23;;;;;;;;;;5032501;28;20101;-58
2024/02/15 12:31:01;;;;;;;3.53;1.23;;;;;;;;;;5032412;28;20026;-58
2024/02/15 12:33:27;;;;;;;3.08;0.90;;;;;;;;;;5027973;28;20053;-58
2024/02/15 12:36:03;;;;;;;4.20;1.00;;;;;;;;;;5034086;28;20508;-58
2024/02/15 12:38:29;;;;;;;6.72;1.10;;;;;;;;;;5034860;28;20022;-59
2024/02/15 12:40:54;;;;;;;2.67;0.90;;;;;;;;;;5032073;28;20021;-57
2024/02/15 12:43:19;;;;;;;2.30;0.82;;;;;;;;;;5031715;28;20032;-58
2024/02/15 12:45:44;;;;;;;4.50;0.90;;;;;;;;;;5031828;28;20021;-58
2024/02/15 12:48:10;;;;;;;3.55;1.02;;;;;;;;;;5028620;28;20021;-57
2024/02/15 12:50:35;;;;;;;1.88;0.80;;;;;;;;;;5029701;28;20034;-59
2024/02/15 12:53:05;;;;;;;1.77;0.70;;;;;;;;;;5032458;28;20026;-57
2024/02/15 12:55:34;;;;;;;2.70;0.80;;;;;;;;;;5031813;28;20021;-57
2024/02/15 12:58:00;;;;;;;3.30;0.82;;;;;;;;;;5031653;28;20092;-58
2024/02/15 13:00:28;;;;;;;5.05;1.08;;;;;;;;;;5033252;28;20596;-59
2024/02/15 13:02:55;;;;;;;2.35;0.75;;;;;;;;;;5031882;28;20056;-58
2024/02/15 13:05:21;;;;;;;2.20;0.80;;;;;;;;;;5027699;28;20029;-57
2024/02/15 13:07:47;;;;;;;3.20;0.70;;;;;;;;;;5030682;28;20021;-58
2024/02/15 13:10:14;;;;;;;2.42;0.85;;;;;;;;;;5032838;28;20037;-59
2024/02/15 13:12:40;;;;;;;2.65;0.80;;;;;;;;;;5031587;28;20389;-57
2024/02/15 13:15:07;;;;;;;2.45;0.82;;;;;;;;;;5024672;28;20033;-58
2024/02/15 13:17:33;;;;;;;;;;;;;;;;;;5026021;28;20037;-58
2024/02/15 13:20:04;;;;;;;4.57;0.90;;;;;;;;;;5030227;28;19908;-58
2024/02/15 13:22:29;;;;;;;2.42;0.90;;;;;;;;;;5021701;28;20382;-58
2024/02/15 13:24:55;;;;;;;2.47;0.90;;;;;;;;;;5030908;28;20024;-57
2024/02/15 13:27:21;;;;;;;3.75;1.20;;;;;;;;;;5023482;28;20440;-58
2024/02/15 13:29:46;;;;;;;3.42;0.90;;;;;;;;;;5030406;28;20032;-58
2024/02/15 13:32:12;;;;;;;2.75;0.85;;;;;;;;;;5026498;28;20022;-58
2024/02/15 13:34:37;;;;;;;3.08;1.00;;;;;;;;;;5028242;28;20029;-58
2024/02/15 13:37:04;;;;;;;3.20;1.00;;;;;;;;;;5026723;28;20021;-59
2024/02/15 13:39:32;;;;;;;1.90;0.88;;;;;;;;;;5021796;28;20037;-57
2024/02/15 13:41:58;;;;;;;3.13;0.82;;;;;;;;;;5019437;28;20022;-57
2024/02/15 13:44:23;;;;;;;3.30;0.80;;;;;;;;;;5027784;28;20448;-58
2024/02/15 13:46:49;;;;;;;2.10;0.80;;;;;;;;;;5026650;28;20481;-57
2024/02/15 13:49:15;;;;;;;3.03;0.90;;;;;;;;;;5027944;28;20736;-57
2024/02/15 13:51:40;;;;;;;1.90;0.73;;;;;;;;;;5027902;28;20025;-58
2024/02/15 13:54:05;;;;;;;2.97;0.60;;;;;;;;;;5028718;28;20488;-58
2024/02/15 13:56:30;;;;;;;3.45;0.70;;;;;;;;;;5030105;28;20033;-58
2024/02/15 13:58:56;;;;;;;1.63;0.60;;;;;;;;;;5024094;28;20037;-57
2024/02/15 14:01:21;;;;;;;1.52;0.60;;;;;;;;;;5030402;28;20028;-58
2024/02/15 14:03:46;;;;;;;2.63;0.70;;;;;;;;;;5027793;28;20045;-57
2024/02/15 14:06:11;;;;;;;2.95;0.80;;;;;;;;;;5030506;28;20064;-56
2024/02/15 14:08:37;;;;;;;1.95;0.70;;;;;;;;;;5028110;28;20125;-57
2024/02/15 14:11:02;;;;;;;2.67;0.60;;;;;;;;;;5034176;28;20030;-59
2024/02/15 14:13:30;;;;;;;1.40;0.60;;;;;;;;;;5021979;28;20052;-57
2024/02/15 14:15:56;;;;;;;4.43;0.73;;;;;;;;;;5019163;28;20083;-58
2024/02/15 14:18:21;;;;;;;1.50;0.60;;;;;;;;;;5026934;28;20136;-57
2024/02/15 14:20:50;;;;;;;2.15;0.60;;;;;;;;;;5025114;28;20026;-58
2024/02/15 14:23:15;;;;;;;2.05;0.60;;;;;;;;;;5023611;28;20653;-57
2024/02/15 14:25:41;;;;;;;1.87;0.70;;;;;;;;;;5027919;28;20025;-58
2024/02/15 14:28:09;;;;;;;1.33;0.60;;;;;;;;;;5026095;28;20435;-58
2024/02/15 14:33:19;;;;;;;1.95;0.70;;;;;;;;;;5027258;28;20381;-57
2024/02/15 14:35:45;;;;;;;3.60;0.73;;;;;;;;;;5024540;28;20025;-57
2024/02/15 14:38:12;;;;;;;5.70;2.15;;;;;;;;;;5012306;28;20022;-56
2024/02/15 14:40:42;;;;;;;9.32;2.70;;;;;;;;;;5025151;28;20155;-57
2024/02/15 14:43:07;;;;;;;6.18;3.08;;;;;;;;;;5028864;28;20436;-57
2024/02/15 14:45:40;;;;;;;8.87;4.00;;;;;;;;;;5049214;28;20040;-57
2024/02/15 14:48:08;;;;;;;9.00;4.35;;;;;;;;;;5045514;28;20083;-58
2024/02/15 14:50:33;;;;;;;8.93;4.20;;;;;;;;;;5029119;28;20045;-58
2024/02/15 14:52:58;;;;;;;8.20;4.45;;;;;;;;;;5031415;28;20026;-57
2024/02/15 14:55:23;;;;;;;9.27;4.83;;;;;;;;;;5031080;28;20037;-57
2024/02/15 14:57:48;;;;;;;7.90;4.20;;;;;;;;;;5031342;28;20385;-58